Time;durP1;ratioP1;P1;durP2;ratioP2;P2;SDS_P1;SDS_P2;PMS_P1;PMS_P2;Temp;Humidity;BMP_temperature;BMP_pressure;BME280_temperature;BME280_humidity;BME280_pressure;Samples;Min_cycle;Max_cycle;Signal;HPM_P1;HPM_P2
2023/02/01 00:01:15;;;;;;;18.38;4.25;;;6.50;99.90;;;;;;5034091;28;20081;-63
2023/02/01 00:03:40;;;;;;;12.70;3.95;;;6.50;99.90;;;;;;5032701;28;20547;-63
2023/02/01 00:06:06;;;;;;;11.18;3.70;;;6.60;99.90;;;;;;5035800;28;20033;-63
2023/02/01 00:08:31;;;;;;;14.07;4.75;;;6.60;99.90;;;;;;5053196;28;20021;-63
2023/02/01 00:11:02;;;;;;;14.02;4.55;;;6.60;99.90;;;;;;5053389;28;20441;-63
2023/02/01 00:13:29;;;;;;;15.02;5.65;;;6.60;99.90;;;;;;5053144;28;20067;-63
2023/02/01 00:16:01;;;;;;;11.50;4.30;;;6.70;99.90;;;;;;5053099;28;20021;-64
2023/02/01 00:18:27;;;;;;;10.73;5.13;;;6.60;99.90;;;;;;5035164;28;20037;-63
2023/02/01 00:20:53;;;;;;;9.05;3.70;;;6.70;99.90;;;;;;5045660;28;20355;-63
2023/02/01 00:23:18;;;;;;;15.65;3.78;;;6.70;99.90;;;;;;5013747;28;20061;-63
2023/02/01 00:25:44;;;;;;;18.90;4.88;;;6.70;99.90;;;;;;5013405;28;20059;-63
2023/02/01 00:28:09;;;;;;;12.88;3.90;;;6.70;99.90;;;;;;5013227;28;20076;-63
2023/02/01 00:30:35;;;;;;;12.95;3.83;;;6.70;99.90;;;;;;5013868;28;20094;-63
2023/02/01 00:33:00;;;;;;;9.63;3.78;;;6.70;99.90;;;;;;5027602;28;20032;-63
2023/02/01 00:35:26;;;;;;;18.63;4.30;;;6.70;99.90;;;;;;5031737;28;20431;-63
2023/02/01 00:37:51;;;;;;;16.08;4.15;;;6.70;99.90;;;;;;5031531;28;20038;-63
2023/02/01 00:40:17;;;;;;;13.57;4.30;;;6.70;99.90;;;;;;5024831;28;20026;-63
2023/02/01 00:42:43;;;;;;;12.75;4.95;;;6.60;99.90;;;;;;5032626;28;20021;-63
2023/02/01 00:45:09;;;;;;;9.63;3.97;;;6.60;99.90;;;;;;5033009;28;20075;-63
2023/02/01 00:47:35;;;;;;;13.68;4.10;;;6.60;99.90;;;;;;5032319;28;20128;-63
2023/02/01 00:50:00;;;;;;;11.65;4.20;;;6.60;99.90;;;;;;5032591;28;20108;-63
2023/02/01 00:52:26;;;;;;;15.68;4.63;;;6.60;99.90;;;;;;5032768;28;20126;-63
2023/02/01 00:54:52;;;;;;;13.55;3.78;;;6.50;99.90;;;;;;5010880;28;20061;-63
2023/02/01 00:57:17;;;;;;;10.88;3.97;;;6.50;99.90;;;;;;5029550;28;20045;-65
2023/02/01 00:59:43;;;;;;;14.10;3.45;;;6.50;99.90;;;;;;5032441;28;20058;-63
2023/02/01 01:02:10;;;;;;;16.08;3.45;;;6.50;99.90;;;;;;5032599;28;20021;-63
2023/02/01 01:04:36;;;;;;;11.50;3.25;;;6.50;99.90;;;;;;5032237;28;20041;-63
2023/02/01 01:07:01;;;;;;;8.63;3.35;;;6.50;99.90;;;;;;5051958;28;20452;-63
2023/02/01 01:09:27;;;;;;;10.45;3.38;;;6.50;99.90;;;;;;5072445;28;20029;-63
2023/02/01 01:11:53;;;;;;;12.65;4.20;;;6.50;99.90;;;;;;5064056;28;20047;-63
2023/02/01 01:14:19;;;;;;;9.45;2.85;;;6.50;99.90;;;;;;5032101;28;20033;-63
2023/02/01 01:16:44;;;;;;;13.07;3.75;;;6.50;99.90;;;;;;5032253;28;20382;-64
2023/02/01 01:19:10;;;;;;;10.48;3.45;;;6.40;99.90;;;;;;5032068;28;20071;-63
2023/02/01 01:21:35;;;;;;;10.57;3.53;;;6.40;99.90;;;;;;5014387;28;20022;-63
2023/02/01 01:24:01;;;;;;;19.15;3.88;;;6.40;99.90;;;;;;5031924;28;20032;-63
2023/02/01 01:26:28;;;;;;;11.85;3.60;;;6.50;99.90;;;;;;5033310;28;20021;-63
2023/02/01 01:28:56;;;;;;;16.23;3.95;;;6.50;99.90;;;;;;5050372;28;20029;-63
2023/02/01 01:31:22;;;;;;;13.38;3.35;;;6.40;99.90;;;;;;5052119;28;20020;-63
2023/02/01 01:33:50;;;;;;;12.82;4.25;;;6.40;99.90;;;;;;5051621;28;20464;-63
2023/02/01 01:36:16;;;;;;;12.50;3.03;;;6.40;99.90;;;;;;5051942;28;20060;-63
2023/02/01 01:38:42;;;;;;;24.20;4.70;;;6.40;99.90;;;;;;5051186;28;20373;-63
2023/02/01 01:41:11;;;;;;;11.10;3.25;;;6.40;99.90;;;;;;5051612;28;20021;-62
2023/02/01 01:43:58;;;;;;;14.07;3.45;;;6.40;99.90;;;;;;5051531;28;20029;-63
2023/02/01 01:46:30;;;;;;;11.05;3.38;;;6.40;99.90;;;;;;5043720;28;20025;-63
2023/02/01 01:49:05;;;;;;;18.42;4.18;;;6.40;99.90;;;;;;5031416;28;20423;-63
2023/02/01 01:51:35;;;;;;;14.60;3.38;;;6.40;99.90;;;;;;5031896;28;20029;-62
2023/02/01 01:54:24;;;;;;;11.73;3.60;;;6.40;99.90;;;;;;5031696;28;20061;-62
2023/02/01 01:56:56;;;;;;;9.15;3.75;;;6.40;99.90;;;;;;5031241;28;20196;-63
2023/02/01 01:59:24;;;;;;;12.55;3.80;;;6.40;99.90;;;;;;5030324;28;20096;-63
2023/02/01 02:01:51;;;;;;;10.07;3.05;;;6.30;99.90;;;;;;5031413;28;20100;-63
2023/02/01 02:04:17;;;;;;;12.10;4.03;;;6.40;99.90;;;;;;5032279;28;20039;-62
2023/02/01 02:06:58;;;;;;;12.23;3.75;;;6.40;99.90;;;;;;5038770;28;20107;-63
2023/02/01 02:09:23;;;;;;;14.88;5.35;;;6.40;99.90;;;;;;5051326;28;20025;-62
2023/02/01 02:11:49;;;;;;;12.38;3.47;;;6.50;99.90;;;;;;5051204;28;20104;-63
2023/02/01 02:14:18;;;;;;;10.98;3.75;;;6.50;99.90;;;;;;5051473;28;20025;-63
2023/02/01 02:17:18;;;;;;;10.48;3.40;;;6.50;99.90;;;;;;5051118;28;20036;-62
2023/02/01 02:20:22;;;;;;;14.68;4.40;;;6.50;99.90;;;;;;5050271;28;20045;-62
2023/02/01 02:23:11;;;;;;;15.05;3.80;;;6.50;99.90;;;;;;5051164;28;20033;-63
2023/02/01 02:25:52;;;;;;;16.40;5.15;;;6.60;99.90;;;;;;5051307;28;20025;-63
2023/02/01 02:29:00;;;;;;;12.60;3.78;;;6.50;99.90;;;;;;5033032;28;20036;-63
2023/02/01 02:31:28;;;;;;;17.90;4.53;;;6.50;99.90;;;;;;5029131;28;20165;-63
2023/02/01 02:34:25;;;;;;;15.07;4.78;;;6.50;99.90;;;;;;5056766;28;20115;-63
2023/02/01 02:37:18;;;;;;;16.35;4.10;;;6.50;99.90;;;;;;5031313;28;20060;-62
2023/02/01 02:40:20;;;;;;;11.95;3.97;;;6.50;99.90;;;;;;5044267;28;20044;-62
2023/02/01 02:49:29;;;;;;;9.30;3.85;;;6.60;99.90;;;;;;5050866;28;20116;-62
2023/02/01 02:54:51;;;;;;;22.65;5.22;;;6.60;99.90;;;;;;5042787;28;20025;-62
2023/02/01 03:05:50;;;;;;;15.55;4.95;;;6.70;99.90;;;;;;5034928;28;20037;-62
2023/02/01 03:08:20;;;;;;;17.95;4.38;;;6.70;99.90;;;;;;5036651;28;20113;-62
2023/02/01 03:10:48;;;;;;;13.30;4.45;;;6.70;99.90;;;;;;5051594;28;20029;-63
2023/02/01 03:13:16;;;;;;;16.60;4.45;;;6.70;99.90;;;;;;5034799;28;20047;-62
2023/02/01 03:15:44;;;;;;;11.98;5.13;;;6.80;99.90;;;;;;5034379;28;20475;-62
2023/02/01 03:18:20;;;;;;;12.27;3.88;;;6.80;99.90;;;;;;5034520;28;20048;-62
2023/02/01 03:20:49;;;;;;;16.20;3.88;;;6.80;99.90;;;;;;5034385;28;20057;-62
2023/02/01 03:23:19;;;;;;;13.77;3.40;;;6.80;99.90;;;;;;5034541;28;20021;-62
2023/02/01 03:25:48;;;;;;;12.07;3.65;;;6.80;99.90;;;;;;5034520;28;20029;-62
2023/02/01 03:28:19;;;;;;;17.23;4.32;;;6.90;99.90;;;;;;5045113;28;20036;-62
2023/02/01 03:30:45;;;;;;;19.23;4.60;;;6.80;99.90;;;;;;5036142;28;20052;-62
2023/02/01 03:33:23;;;;;;;12.10;3.60;;;6.80;99.90;;;;;;5054198;28;20021;-62
2023/02/01 03:36:06;;;;;;;12.85;4.00;;;6.90;99.90;;;;;;5054188;28;20020;-62
2023/02/01 03:38:51;;;;;;;10.68;3.67;;;6.90;99.90;;;;;;5054074;28;20041;-63
2023/02/01 03:41:37;;;;;;;14.32;4.35;;;6.90;99.90;;;;;;5054387;28;20083;-62
2023/02/01 03:44:09;;;;;;;15.25;3.83;;;6.90;99.90;;;;;;5053932;28;20036;-62
2023/02/01 03:46:44;;;;;;;14.60;5.47;;;6.90;99.90;;;;;;5035774;28;20022;-62
2023/02/01 03:49:14;;;;;;;12.73;4.00;;;6.90;99.90;;;;;;5033877;28;20030;-62
2023/02/01 03:51:40;;;;;;;9.10;3.20;;;6.90;99.90;;;;;;5033914;28;20456;-63
2023/02/01 03:54:10;;;;;;;12.35;3.70;;;6.90;99.90;;;;;;5033801;28;20080;-62
2023/02/01 03:56:40;;;;;;;15.93;4.13;;;6.90;99.90;;;;;;5015935;28;20053;-62
2023/02/01 03:59:05;;;;;;;16.20;3.53;;;6.90;99.90;;;;;;5033656;28;20041;-62
2023/02/01 04:01:31;;;;;;;11.68;3.58;;;6.90;99.90;;;;;;5034079;28;20033;-63
2023/02/01 04:03:58;;;;;;;13.32;3.47;;;6.90;99.90;;;;;;5033036;28;20088;-62
2023/02/01 04:06:24;;;;;;;17.00;5.07;;;7.00;99.90;;;;;;5038220;28;20031;-63
2023/02/01 04:08:51;;;;;;;13.68;4.82;;;6.90;99.80;;;;;;5053350;28;20021;-63
2023/02/01 04:11:18;;;;;;;15.98;3.70;;;7.00;99.80;;;;;;5053969;28;20111;-64
2023/02/01 04:13:44;;;;;;;14.50;4.45;;;7.00;99.80;;;;;;5053323;28;20021;-63
2023/02/01 04:16:09;;;;;;;14.38;4.43;;;7.00;99.80;;;;;;5053383;28;20090;-63
2023/02/01 04:18:35;;;;;;;16.50;4.45;;;7.00;99.70;;;;;;5052233;28;20041;-63
2023/02/01 04:21:01;;;;;;;22.65;4.13;;;7.00;99.80;;;;;;5053247;28;20017;-63
2023/02/01 04:23:28;;;;;;;13.35;3.83;;;7.10;99.80;;;;;;5052004;28;20056;-63
2023/02/01 04:25:54;;;;;;;10.07;3.70;;;7.10;99.80;;;;;;5053052;28;20036;-63
2023/02/01 04:28:20;;;;;;;15.93;4.80;;;7.10;99.70;;;;;;5053233;28;20526;-63
2023/02/01 04:30:46;;;;;;;15.00;4.35;;;7.10;99.70;;;;;;5052966;28;20104;-63
2023/02/01 04:33:13;;;;;;;13.93;4.25;;;7.20;99.70;;;;;;5044951;28;20047;-63
2023/02/01 04:35:39;;;;;;;12.48;3.72;;;7.20;99.60;;;;;;5038796;28;20021;-63
2023/02/01 04:38:06;;;;;;;12.63;4.00;;;7.20;99.70;;;;;;5033371;28;20037;-63
2023/02/01 04:40:32;;;;;;;13.05;4.25;;;7.20;99.60;;;;;;5048607;28;20035;-63
2023/02/01 04:42:58;;;;;;;14.02;4.60;;;7.30;99.60;;;;;;5034963;28;20471;-63
2023/02/01 04:45:23;;;;;;;14.88;5.07;;;7.30;99.60;;;;;;5052824;28;20125;-63
2023/02/01 04:47:49;;;;;;;16.77;4.22;;;7.30;99.50;;;;;;5052853;28;20404;-63
2023/02/01 04:50:15;;;;;;;18.92;4.63;;;7.40;99.50;;;;;;5052792;28;20427;-63
2023/02/01 04:52:41;;;;;;;14.63;4.32;;;7.40;99.50;;;;;;5050501;28;20029;-63
2023/02/01 04:55:07;;;;;;;15.50;4.65;;;7.40;99.20;;;;;;5032816;28;20074;-64
2023/02/01 04:57:32;;;;;;;14.25;4.00;;;7.40;99.30;;;;;;5013162;28;20049;-63
2023/02/01 04:59:58;;;;;;;16.60;5.20;;;7.50;99.30;;;;;;5012731;28;20025;-64
2023/02/01 05:02:24;;;;;;;12.70;4.15;;;7.40;99.30;;;;;;5012903;28;20457;-64
2023/02/01 05:04:50;;;;;;;17.77;4.95;;;7.50;99.30;;;;;;5012657;28;20373;-63
2023/02/01 05:07:16;;;;;;;11.30;3.75;;;7.50;99.30;;;;;;5036105;28;20025;-63
2023/02/01 05:09:41;;;;;;;11.70;4.30;;;7.50;99.30;;;;;;5047372;28;20480;-63
2023/02/01 05:14:53;;;;;;;11.93;4.35;;;7.60;99.20;;;;;;5011505;28;20058;-64
2023/02/01 05:17:18;;;;;;;17.67;5.38;;;7.60;99.10;;;;;;5012633;28;20064;-64
2023/02/01 05:19:44;;;;;;;12.18;3.40;;;7.60;99.10;;;;;;4994485;28;20022;-64
2023/02/01 05:22:10;;;;;;;16.08;4.70;;;7.60;99.20;;;;;;5012970;28;20504;-64
2023/02/01 05:24:35;;;;;;;12.90;4.85;;;7.70;99.10;;;;;;5012476;28;20477;-64
2023/02/01 05:27:01;;;;;;;12.90;4.10;;;7.70;98.90;;;;;;5013061;28;20026;-64
2023/02/01 05:29:26;;;;;;;13.65;5.00;;;7.70;99.00;;;;;;5029791;28;20465;-64
2023/02/01 05:31:52;;;;;;;11.18;4.03;;;7.60;98.90;;;;;;5031989;28;20026;-63
2023/02/01 05:34:18;;;;;;;14.23;4.88;;;7.70;98.90;;;;;;5032090;28;20530;-63
2023/02/01 05:36:43;;;;;;;12.13;4.20;;;7.70;98.90;;;;;;5031783;28;20021;-63
2023/02/01 05:39:10;;;;;;;24.80;4.72;;;7.70;98.80;;;;;;5032060;28;20176;-63
2023/02/01 05:41:36;;;;;;;13.48;3.58;;;7.70;98.80;;;;;;5031946;28;20036;-63
2023/02/01 05:44:02;;;;;;;12.57;3.97;;;7.80;99.00;;;;;;5026888;28;20034;-63
2023/02/01 05:46:28;;;;;;;14.00;4.63;;;7.80;98.80;;;;;;5012068;28;20477;-63
2023/02/01 05:48:53;;;;;;;10.27;4.55;;;7.80;98.60;;;;;;5011999;28;20057;-63
2023/02/01 05:51:19;;;;;;;14.45;4.13;;;7.70;98.70;;;;;;5011998;28;20378;-63
2023/02/01 05:53:45;;;;;;;12.93;4.43;;;7.80;98.60;;;;;;5011940;28;20076;-63
2023/02/01 05:56:10;;;;;;;11.82;4.13;;;7.70;98.40;;;;;;5027917;28;20092;-63
2023/02/01 05:58:36;;;;;;;10.30;3.83;;;7.70;98.50;;;;;;5023769;28;20072;-63
2023/02/01 06:01:02;;;;;;;14.43;5.10;;;7.70;98.60;;;;;;5026552;28;20428;-62
2023/02/01 06:03:28;;;;;;;12.95;4.53;;;7.80;98.60;;;;;;5011968;28;20448;-63
2023/02/01 06:05:54;;;;;;;15.15;5.28;;;7.80;98.60;;;;;;5009575;28;20101;-62
2023/02/01 06:08:20;;;;;;;13.90;4.38;;;7.80;98.60;;;;;;5031752;28;20021;-62
2023/02/01 06:10:45;;;;;;;16.33;3.95;;;7.80;98.60;;;;;;5031383;28;20022;-62
2023/02/01 06:13:11;;;;;;;12.35;4.13;;;7.80;98.60;;;;;;5031791;28;20033;-62
2023/02/01 06:15:42;;;;;;;14.02;4.35;;;7.90;98.60;;;;;;5031351;28;20524;-63
2023/02/01 06:18:07;;;;;;;11.52;4.82;;;7.90;98.80;;;;;;5007661;28;20125;-63
2023/02/01 06:20:33;;;;;;;16.83;4.78;;;7.90;98.60;;;;;;5011649;28;20113;-63
2023/02/01 06:22:59;;;;;;;21.73;4.40;;;7.90;98.60;;;;;;5011572;28;20030;-63
2023/02/01 06:25:24;;;;;;;15.27;4.13;;;7.90;98.60;;;;;;5012579;28;20072;-63
2023/02/01 06:27:50;;;;;;;11.80;3.90;;;7.80;98.60;;;;;;5015619;28;20370;-63
2023/02/01 06:30:16;;;;;;;18.25;4.40;;;7.80;98.70;;;;;;5015605;28;20029;-63
2023/02/01 06:32:41;;;;;;;13.07;3.83;;;7.80;98.70;;;;;;5015512;28;20382;-63
2023/02/01 06:35:16;;;;;;;18.92;5.35;;;7.80;98.90;;;;;;5015996;28;20104;-63
2023/02/01 06:37:42;;;;;;;11.07;4.93;;;7.80;98.90;;;;;;5013395;28;20121;-63
2023/02/01 06:40:09;;;;;;;14.82;4.22;;;7.80;98.80;;;;;;5015284;28;20484;-62
2023/02/01 06:42:34;;;;;;;17.65;4.45;;;7.70;98.90;;;;;;5015601;28;20018;-63
2023/02/01 06:45:00;;;;;;;10.75;3.90;;;7.70;98.90;;;;;;5015079;28;20029;-63
2023/02/01 06:47:26;;;;;;;11.48;4.13;;;7.70;98.90;;;;;;5015205;28;20030;-63
2023/02/01 06:49:51;;;;;;;15.60;3.72;;;7.70;99.00;;;;;;5014965;28;20030;-62
2023/02/01 06:52:17;;;;;;;15.13;4.85;;;7.70;99.00;;;;;;5015666;28;20425;-61
2023/02/01 06:54:42;;;;;;;14.57;5.47;;;7.70;99.00;;;;;;5027561;28;20116;-62
2023/02/01 06:57:08;;;;;;;15.70;4.40;;;7.70;99.10;;;;;;5050250;28;20041;-62
2023/02/01 06:59:33;;;;;;;15.15;5.25;;;7.70;99.10;;;;;;5043960;28;20585;-64
2023/02/01 07:01:59;;;;;;;11.90;4.10;;;7.70;99.10;;;;;;5034801;28;20076;-64
2023/02/01 07:04:25;;;;;;;16.42;5.05;;;7.70;99.10;;;;;;5034699;28;20123;-63
2023/02/01 07:06:50;;;;;;;20.55;4.57;;;7.70;99.30;;;;;;5034616;28;20026;-63
2023/02/01 07:09:16;;;;;;;14.95;5.28;;;7.80;99.10;;;;;;5041178;28;20021;-63
2023/02/01 07:11:43;;;;;;;13.50;4.70;;;7.80;99.00;;;;;;5044827;28;20291;-63
2023/02/01 07:14:10;;;;;;;14.55;5.03;;;7.80;99.00;;;;;;5034584;28;20025;-63
2023/02/01 07:16:36;;;;;;;9.10;3.67;;;7.80;98.90;;;;;;5035000;28;20468;-63
2023/02/01 07:19:01;;;;;;;11.10;3.70;;;7.80;98.90;;;;;;5034385;28;20084;-63
2023/02/01 07:21:30;;;;;;;15.00;4.15;;;7.80;98.90;;;;;;5034452;28;20049;-63
2023/02/01 07:23:55;;;;;;;11.27;3.80;;;7.80;98.80;;;;;;5034221;28;20472;-63
2023/02/01 07:26:21;;;;;;;16.42;4.80;;;7.80;98.80;;;;;;5041833;28;20063;-63
2023/02/01 07:28:47;;;;;;;10.18;3.60;;;7.80;98.80;;;;;;5053991;28;20088;-63
2023/02/01 07:31:17;;;;;;;15.55;4.03;;;7.80;98.80;;;;;;5054122;28;20411;-63
2023/02/01 07:33:43;;;;;;;16.55;3.95;;;7.70;98.80;;;;;;5053293;28;20037;-63
2023/02/01 07:36:12;;;;;;;10.65;4.63;;;7.70;98.80;;;;;;5053893;28;20037;-63
2023/02/01 07:38:38;;;;;;;16.73;4.75;;;7.80;98.90;;;;;;5053101;28;20033;-63
2023/02/01 07:41:05;;;;;;;9.68;3.65;;;7.80;98.90;;;;;;5053984;28;20028;-63
2023/02/01 07:43:32;;;;;;;9.65;3.67;;;7.80;98.90;;;;;;5044969;28;20028;-63
2023/02/01 07:45:59;;;;;;;14.10;3.90;;;7.80;98.90;;;;;;5033722;28;20105;-63
2023/02/01 07:48:26;;;;;;;9.20;3.72;;;7.80;98.90;;;;;;5033676;28;20029;-63
2023/02/01 07:51:00;;;;;;;16.02;4.85;;;7.80;99.00;;;;;;5034318;28;20030;-63
2023/02/01 07:53:25;;;;;;;15.93;4.30;;;7.70;99.10;;;;;;5033917;28;20104;-64
2023/02/01 07:55:51;;;;;;;14.02;4.35;;;7.80;99.30;;;;;;5043621;28;20167;-63
2023/02/01 07:58:17;;;;;;;10.73;4.68;;;7.70;99.20;;;;;;5053811;28;20366;-62
2023/02/01 08:03:28;;;;;;;14.18;4.55;;;7.70;99.30;;;;;;5033585;28;20211;-62
2023/02/01 08:05:55;;;;;;;11.50;3.88;;;7.60;99.40;;;;;;5017529;28;20034;-62
2023/02/01 08:08:21;;;;;;;10.07;4.38;;;7.60;99.50;;;;;;5053687;28;20045;-62
2023/02/01 08:10:46;;;;;;;13.43;4.90;;;7.50;99.60;;;;;;5034816;28;20497;-62
2023/02/01 08:13:12;;;;;;;9.07;3.45;;;7.50;99.60;;;;;;5033630;28;20073;-62
2023/02/01 08:15:38;;;;;;;14.02;3.35;;;7.50;99.80;;;;;;5033310;28;20435;-62
2023/02/01 08:18:04;;;;;;;10.50;4.13;;;7.50;99.80;;;;;;5045607;28;20140;-62
2023/02/01 08:20:30;;;;;;;11.98;3.55;;;7.40;99.80;;;;;;5033381;28;20100;-62
2023/02/01 08:22:56;;;;;;;9.15;3.67;;;7.40;99.90;;;;;;5033921;28;20164;-62
2023/02/01 08:25:23;;;;;;;7.38;3.55;;;7.40;99.90;;;;;;5052097;28;20028;-62
2023/02/01 08:27:49;;;;;;;10.52;3.30;;;7.30;99.90;;;;;;5052119;28;20480;-62
2023/02/01 08:30:15;;;;;;;8.35;3.35;;;7.20;99.90;;;;;;5040885;28;20085;-62
2023/02/01 08:32:41;;;;;;;10.75;3.60;;;7.20;99.90;;;;;;5033149;28;20036;-62
2023/02/01 08:35:07;;;;;;;9.32;3.60;;;7.10;99.90;;;;;;5032928;28;20112;-61
2023/02/01 08:37:32;;;;;;;10.40;3.00;;;7.20;99.90;;;;;;5046214;28;20033;-62
2023/02/01 08:39:58;;;;;;;8.88;4.22;;;7.20;99.90;;;;;;5051929;28;20044;-62
2023/02/01 08:45:08;;;;;;;10.77;3.78;;;7.10;99.90;;;;;;5052700;28;20028;-61
2023/02/01 08:47:35;;;;;;;9.20;3.97;;;7.10;99.90;;;;;;5034227;28;20052;-62
2023/02/01 08:50:01;;;;;;;9.98;4.25;;;7.00;99.90;;;;;;5039908;28;20048;-62
2023/02/01 08:52:26;;;;;;;8.40;3.67;;;7.00;99.90;;;;;;5038607;28;20496;-62
2023/02/01 08:54:52;;;;;;;12.05;4.18;;;7.00;99.90;;;;;;5032769;28;20032;-62
2023/02/01 08:57:18;;;;;;;9.95;3.30;;;7.00;99.90;;;;;;5043471;28;20057;-62
2023/02/01 08:59:44;;;;;;;8.63;3.90;;;7.00;99.90;;;;;;5032467;28;20025;-62
2023/02/01 09:02:13;;;;;;;8.25;3.30;;;6.90;99.90;;;;;;5034554;28;20025;-62
2023/02/01 09:04:39;;;;;;;4.82;3.22;;;6.90;99.90;;;;;;5032196;28;20029;-62
2023/02/01 09:07:05;;;;;;;7.63;3.40;;;6.90;99.90;;;;;;5045176;28;20036;-62
2023/02/01 09:09:30;;;;;;;8.25;3.08;;;6.90;99.90;;;;;;5032572;28;20195;-64
2023/02/01 09:11:56;;;;;;;6.70;3.03;;;6.90;99.90;;;;;;5041913;28;20033;-62
2023/02/01 09:14:21;;;;;;;5.50;2.45;;;6.80;99.90;;;;;;5040390;28;20096;-62
2023/02/01 09:16:47;;;;;;;6.40;2.70;;;6.80;99.90;;;;;;5050875;28;20025;-62
2023/02/01 09:19:12;;;;;;;6.50;3.08;;;6.80;99.90;;;;;;5052061;28;20083;-62
2023/02/01 09:21:38;;;;;;;4.25;2.38;;;6.70;99.90;;;;;;5046479;28;20476;-62
2023/02/01 09:24:04;;;;;;;7.20;2.80;;;6.80;99.90;;;;;;5032251;28;20021;-62
2023/02/01 09:26:30;;;;;;;7.22;3.25;;;6.70;99.90;;;;;;5031715;28;20026;-63
2023/02/01 09:28:55;;;;;;;5.05;2.08;;;6.70;99.90;;;;;;5016834;28;20021;-63
2023/02/01 09:31:21;;;;;;;7.22;2.15;;;6.80;99.90;;;;;;5036562;28;20032;-63
2023/02/01 09:33:46;;;;;;;5.72;2.15;;;6.80;99.90;;;;;;5042631;28;20040;-63
2023/02/01 09:36:12;;;;;;;4.40;2.05;;;6.80;99.90;;;;;;5031949;28;20495;-63
2023/02/01 09:38:38;;;;;;;5.43;2.10;;;6.80;99.90;;;;;;5042777;28;20043;-63
2023/02/01 09:41:23;;;;;;;3.75;1.90;;;6.80;99.90;;;;;;5035374;28;20017;-63
2023/02/01 09:44:06;;;;;;;5.28;2.28;;;6.80;99.90;;;;;;5032564;28;20033;-63
2023/02/01 09:46:34;;;;;;;4.80;2.53;;;6.90;99.90;;;;;;5031595;28;20056;-63
2023/02/01 09:49:09;;;;;;;4.43;2.05;;;6.90;99.90;;;;;;5036251;28;20525;-63
2023/02/01 09:51:43;;;;;;;2.85;1.90;;;6.90;99.90;;;;;;5044103;28;20068;-64
2023/02/01 09:54:28;;;;;;;4.03;1.83;;;6.90;99.90;;;;;;5040064;28;20420;-63
2023/02/01 09:56:56;;;;;;;4.78;1.83;;;6.90;99.90;;;;;;5030779;28;20049;-63
2023/02/01 09:59:44;;;;;;;2.45;1.65;;;6.90;99.90;;;;;;5038378;28;20088;-63
2023/02/01 10:02:24;;;;;;;3.20;1.85;;;6.90;99.90;;;;;;5050504;28;20108;-64
2023/02/01 10:04:53;;;;;;;3.53;1.90;;;6.90;99.90;;;;;;5038892;28;20033;-64
2023/02/01 10:07:35;;;;;;;3.20;1.90;;;6.90;99.90;;;;;;5041888;28;20079;-64
2023/02/01 10:10:36;;;;;;;6.88;1.83;;;6.90;99.90;;;;;;5018849;28;20038;-64
2023/02/01 10:13:12;;;;;;;4.13;2.00;;;6.90;99.90;;;;;;5011275;28;20044;-63
2023/02/01 10:16:03;;;;;;;5.05;2.10;;;6.90;99.90;;;;;;5045283;28;20151;-63
2023/02/01 10:18:45;;;;;;;3.58;1.80;;;6.90;99.90;;;;;;5034221;28;20037;-63
2023/02/01 10:21:25;;;;;;;8.70;2.05;;;6.90;99.90;;;;;;5033416;28;20094;-63
2023/02/01 10:24:15;;;;;;;6.20;2.33;;;6.90;99.90;;;;;;5035486;28;20472;-64
2023/02/01 10:26:47;;;;;;;5.18;2.17;;;6.90;99.90;;;;;;5031148;28;20029;-64
2023/02/01 10:29:22;;;;;;;4.65;2.05;;;6.90;99.90;;;;;;5040192;28;20116;-62
2023/02/01 10:31:48;;;;;;;4.40;2.17;;;6.90;99.90;;;;;;5031086;28;20025;-62
2023/02/01 10:34:34;;;;;;;6.28;2.40;;;6.90;99.90;;;;;;5023500;28;20026;-63
2023/02/01 10:37:28;;;;;;;5.38;1.98;;;6.90;99.90;;;;;;5030956;28;20056;-63
2023/02/01 10:39:56;;;;;;;5.28;2.05;;;7.00;99.90;;;;;;5042537;28;20040;-62
2023/02/01 10:42:26;;;;;;;4.20;2.10;;;7.00;99.90;;;;;;5046066;28;20484;-61
2023/02/01 10:44:55;;;;;;;5.18;2.22;;;7.00;99.90;;;;;;5063161;28;20032;-61
2023/02/01 10:47:21;;;;;;;4.95;2.10;;;7.10;99.90;;;;;;5055270;28;20045;-61
2023/02/01 10:50:16;;;;;;;4.80;1.80;;;7.10;99.90;;;;;;5042293;28;20111;-62
2023/02/01 10:52:50;;;;;;;6.85;2.88;;;7.10;99.90;;;;;;5046728;28;20384;-62
2023/02/01 10:55:34;;;;;;;5.20;2.22;;;7.10;99.90;;;;;;5046390;28;20535;-60
2023/02/01 10:58:06;;;;;;;4.53;1.65;;;7.10;99.90;;;;;;5013927;28;20037;-62
2023/02/01 11:01:05;;;;;;;7.20;1.60;;;7.10;99.90;;;;;;5015820;28;20401;-62
2023/02/01 11:03:33;;;;;;;4.25;1.70;;;7.10;99.90;;;;;;5018464;28;20053;-63
2023/02/01 11:05:59;;;;;;;4.80;1.75;;;7.10;99.90;;;;;;5010673;28;20061;-61
2023/02/01 11:08:25;;;;;;;5.68;2.08;;;7.10;99.90;;;;;;4979360;28;20469;-62
2023/02/01 11:11:05;;;;;;;5.28;2.00;;;7.10;99.90;;;;;;4991475;28;20037;-62
2023/02/01 11:13:36;;;;;;;4.30;2.03;;;7.10;99.90;;;;;;4996556;28;20066;-64
2023/02/01 11:16:04;;;;;;;5.30;2.25;;;7.20;99.90;;;;;;4962408;28;20022;-62
2023/02/01 11:18:34;;;;;;;6.40;2.47;;;7.20;99.90;;;;;;4995880;28;20070;-62
2023/02/01 11:21:00;;;;;;;7.35;2.38;;;7.30;99.90;;;;;;5005649;28;20299;-60
2023/02/01 11:23:29;;;;;;;7.13;2.50;;;7.30;99.90;;;;;;4993433;28;20045;-62
2023/02/01 11:26:01;;;;;;;7.07;2.63;;;7.40;99.90;;;;;;5006743;28;20026;-62
2023/02/01 11:28:33;;;;;;;5.85;2.90;;;7.40;99.90;;;;;;5010586;28;20061;-63
2023/02/01 11:31:04;;;;;;;5.93;2.58;;;7.50;99.90;;;;;;5012693;28;20163;-63
2023/02/01 11:33:35;;;;;;;6.53;3.15;;;7.50;99.90;;;;;;5012787;28;20332;-63
2023/02/01 11:36:10;;;;;;;7.55;2.88;;;7.60;99.90;;;;;;4995963;28;20033;-63
2023/02/01 11:38:35;;;;;;;;;;;7.60;99.90;;;;;;5012425;28;20046;-64
2023/02/01 11:41:20;;;;;;;6.05;2.80;;;7.60;99.90;;;;;;5006628;28;20379;-62
2023/02/01 11:43:54;;;;;;;6.70;2.88;;;7.70;99.90;;;;;;5010986;28;20489;-62
2023/02/01 11:46:27;;;;;;;7.32;2.40;;;7.80;99.90;;;;;;5002446;28;20480;-63
2023/02/01 11:48:54;;;;;;;7.40;2.83;;;7.80;99.90;;;;;;5006130;28;20061;-63
2023/02/01 11:51:31;;;;;;;9.77;2.90;;;7.90;99.90;;;;;;5005758;28;20128;-62
2023/02/01 11:54:00;;;;;;;8.38;2.83;;;8.00;99.90;;;;;;4997272;28;20027;-62
2023/02/01 11:56:34;;;;;;;12.90;2.83;;;8.00;99.90;;;;;;5032735;28;20046;-63
2023/02/01 11:59:15;;;;;;;7.75;3.13;;;8.10;99.90;;;;;;5021173;28;20045;-62
2023/02/01 12:01:46;;;;;;;8.95;3.15;;;8.10;99.90;;;;;;5020630;28;20117;-62
2023/02/01 12:04:44;;;;;;;7.97;2.85;;;8.30;99.90;;;;;;5024359;28;20029;-62
2023/02/01 12:07:20;;;;;;;10.25;4.28;;;8.30;99.90;;;;;;5018749;28;20065;-62
2023/02/01 12:09:58;;;;;;;13.23;3.05;;;8.40;99.90;;;;;;5023876;28;20033;-62
2023/02/01 12:12:25;;;;;;;7.40;2.63;;;8.50;99.90;;;;;;5033588;28;20025;-63
2023/02/01 12:15:10;;;;;;;6.75;2.72;;;8.60;99.90;;;;;;5012813;28;20027;-63
2023/02/01 12:17:47;;;;;;;6.53;2.60;;;8.60;99.90;;;;;;5051523;28;20142;-63
2023/02/01 12:20:24;;;;;;;6.57;2.60;;;8.70;99.90;;;;;;5004830;28;20644;-63
2023/02/01 12:23:15;;;;;;;8.25;2.38;;;8.70;99.90;;;;;;5023253;28;20078;-63
2023/02/01 12:25:59;;;;;;;5.32;2.22;;;8.70;99.90;;;;;;5015761;28;20029;-63
2023/02/01 12:28:59;;;;;;;8.93;2.70;;;8.70;99.90;;;;;;5031289;28;20022;-63
2023/02/01 12:31:45;;;;;;;8.52;2.58;;;8.80;99.90;;;;;;5008153;28;20061;-62
2023/02/01 12:34:39;;;;;;;7.72;2.47;;;8.80;99.90;;;;;;5013260;28;20041;-63
2023/02/01 12:37:11;;;;;;;5.07;2.25;;;8.70;99.90;;;;;;5014594;28;20029;-63
2023/02/01 12:39:48;;;;;;;6.43;2.67;;;8.70;99.90;;;;;;5023089;28;20401;-62
2023/02/01 12:42:31;;;;;;;6.38;2.65;;;8.70;99.90;;;;;;5014736;28;20061;-63
2023/02/01 12:45:17;;;;;;;9.40;2.80;;;8.70;99.90;;;;;;5013398;28;20481;-63
2023/02/01 12:48:23;;;;;;;5.88;2.58;;;8.70;99.90;;;;;;5022292;28;20045;-62
2023/02/01 12:50:59;;;;;;;5.72;2.35;;;8.70;99.90;;;;;;5016322;28;20587;-62
2023/02/01 12:53:33;;;;;;;9.05;2.70;;;8.70;99.90;;;;;;5027419;28;20428;-62
2023/02/01 12:56:06;;;;;;;9.15;2.78;;;8.70;99.90;;;;;;5021228;28;20049;-62
2023/02/01 12:58:40;;;;;;;7.55;2.60;;;8.70;99.90;;;;;;5018649;28;20054;-62
2023/02/01 13:01:20;;;;;;;8.82;3.10;;;8.80;99.90;;;;;;5021017;28;20112;-62
2023/02/01 13:04:17;;;;;;;9.90;2.80;;;8.80;99.90;;;;;;5024021;28;20034;-65
2023/02/01 13:06:52;;;;;;;7.10;2.35;;;8.80;99.80;;;;;;5012924;28;20433;-65
2023/02/01 13:09:37;;;;;;;10.10;3.22;;;8.80;99.70;;;;;;5023332;28;20025;-64
2023/02/01 13:12:29;;;;;;;9.20;3.33;;;8.90;99.70;;;;;;5024021;28;20421;-64
2023/02/01 13:15:02;;;;;;;8.40;3.08;;;8.90;99.60;;;;;;5022459;28;20038;-66
2023/02/01 13:17:32;;;;;;;5.85;2.85;;;8.90;99.50;;;;;;5022903;28;20100;-64
2023/02/01 13:20:19;;;;;;;8.85;3.47;;;9.00;99.50;;;;;;5014152;28;20033;-64
2023/02/01 13:23:01;;;;;;;5.68;2.40;;;9.00;99.40;;;;;;5013916;28;20435;-64
2023/02/01 13:25:39;;;;;;;8.90;2.90;;;9.00;99.40;;;;;;5018361;28;20112;-64
2023/02/01 13:28:12;;;;;;;8.00;2.97;;;9.00;99.30;;;;;;5014333;28;20099;-62
2023/02/01 13:30:47;;;;;;;5.93;2.78;;;8.90;99.10;;;;;;5017202;28;20049;-64
2023/02/01 13:33:36;;;;;;;11.63;2.95;;;8.80;99.10;;;;;;5012554;28;20064;-63
2023/02/01 13:36:10;;;;;;;9.88;2.85;;;8.90;99.20;;;;;;4996165;28;20040;-63